sensor_id;sensor_type;location;lat;lon;timestamp;P1;durP1;ratioP1;P2;durP2;ratioP2
52858;SDS011;38721;53.098;6.596;2023-04-30T00:01:59;17.33;;;7.57;;
52858;SDS011;38721;53.098;6.596;2023-04-30T00:04:25;11.65;;;6.07;;
52858;SDS011;38721;53.098;6.596;2023-04-30T00:06:50;12.38;;;6.90;;
52858;SDS011;38721;53.098;6.596;2023-04-30T00:09:16;18.52;;;7.60;;
52858;SDS011;38721;53.098;6.596;2023-04-30T00:11:41;13.23;;;7.15;;
52858;SDS011;38721;53.098;6.596;2023-04-30T00:14:07;13.88;;;7.10;;
52858;SDS011;38721;53.098;6.596;2023-04-30T00:16:34;11.15;;;7.00;;
52858;SDS011;38721;53.098;6.596;2023-04-30T00:19:01;8.13;;;6.30;;
52858;SDS011;38721;53.098;6.596;2023-04-30T00:21:27;13.07;;;7.07;;
52858;SDS011;38721;53.098;6.596;2023-04-30T00:23:52;14.75;;;7.22;;
52858;SDS011;38721;53.098;6.596;2023-04-30T00:26:21;11.60;;;6.88;;
52858;SDS011;38721;53.098;6.596;2023-04-30T00:28:46;9.68;;;6.10;;
52858;SDS011;38721;53.098;6.596;2023-04-30T00:31:12;10.60;;;6.13;;
52858;SDS011;38721;53.098;6.596;2023-04-30T00:33:38;10.02;;;6.00;;
52858;SDS011;38721;53.098;6.596;2023-04-30T00:36:04;12.52;;;5.88;;
52858;SDS011;38721;53.098;6.596;2023-04-30T00:38:29;12.27;;;6.93;;
52858;SDS011;38721;53.098;6.596;2023-04-30T00:40:55;30.55;;;6.30;;
52858;SDS011;38721;53.098;6.596;2023-04-30T00:43:21;11.95;;;6.97;;
52858;SDS011;38721;53.098;6.596;2023-04-30T00:45:47;11.32;;;6.28;;
52858;SDS011;38721;53.098;6.596;2023-04-30T00:48:12;18.60;;;8.60;;
52858;SDS011;38721;53.098;6.596;2023-04-30T00:50:38;15.38;;;8.63;;
52858;SDS011;38721;53.098;6.596;2023-04-30T00:53:05;13.20;;;7.57;;
52858;SDS011;38721;53.098;6.596;2023-04-30T00:55:30;16.42;;;9.05;;
52858;SDS011;38721;53.098;6.596;2023-04-30T00:57:57;13.23;;;7.82;;
52858;SDS011;38721;53.098;6.596;2023-04-30T01:00:23;17.83;;;8.82;;
52858;SDS011;38721;53.098;6.596;2023-04-30T01:02:49;17.58;;;9.30;;
52858;SDS011;38721;53.098;6.596;2023-04-30T01:05:15;15.80;;;8.50;;
52858;SDS011;38721;53.098;6.596;2023-04-30T01:07:41;15.45;;;8.27;;
52858;SDS011;38721;53.098;6.596;2023-04-30T01:10:09;17.15;;;9.13;;
52858;SDS011;38721;53.098;6.596;2023-04-30T01:15:11;13.10;;;7.97;;
52858;SDS011;38721;53.098;6.596;2023-04-30T01:20:30;13.38;;;8.45;;
52858;SDS011;38721;53.098;6.596;2023-04-30T01:23:17;16.67;;;8.35;;
52858;SDS011;38721;53.098;6.596;2023-04-30T01:25:52;11.68;;;8.27;;
52858;SDS011;38721;53.098;6.596;2023-04-30T01:28:51;12.20;;;8.43;;
52858;SDS011;38721;53.098;6.596;2023-04-30T01:31:18;13.35;;;7.50;;
52858;SDS011;38721;53.098;6.596;2023-04-30T01:33:44;16.92;;;8.52;;
52858;SDS011;38721;53.098;6.596;2023-04-30T01:36:32;13.45;;;8.32;;
52858;SDS011;38721;53.098;6.596;2023-04-30T01:41:58;17.45;;;8.40;;
52858;SDS011;38721;53.098;6.596;2023-04-30T01:50:13;13.10;;;7.95;;
52858;SDS011;38721;53.098;6.596;2023-04-30T01:53:02;17.33;;;8.98;;
52858;SDS011;38721;53.098;6.596;2023-04-30T01:58:06;14.07;;;7.53;;
52858;SDS011;38721;53.098;6.596;2023-04-30T02:00:36;19.60;;;7.20;;
52858;SDS011;38721;53.098;6.596;2023-04-30T02:03:02;13.63;;;6.35;;
52858;SDS011;38721;53.098;6.596;2023-04-30T02:05:28;10.32;;;6.32;;
52858;SDS011;38721;53.098;6.596;2023-04-30T02:07:53;10.68;;;6.78;;
52858;SDS011;38721;53.098;6.596;2023-04-30T02:10:21;14.90;;;7.18;;
52858;SDS011;38721;53.098;6.596;2023-04-30T02:12:47;11.70;;;7.50;;
52858;SDS011;38721;53.098;6.596;2023-04-30T02:15:13;12.63;;;8.48;;
52858;SDS011;38721;53.098;6.596;2023-04-30T02:17:39;17.23;;;8.40;;
52858;SDS011;38721;53.098;6.596;2023-04-30T02:20:05;17.98;;;7.35;;
52858;SDS011;38721;53.098;6.596;2023-04-30T02:22:32;12.75;;;7.47;;
52858;SDS011;38721;53.098;6.596;2023-04-30T02:24:57;13.30;;;6.88;;
52858;SDS011;38721;53.098;6.596;2023-04-30T02:27:24;10.88;;;7.10;;
52858;SDS011;38721;53.098;6.596;2023-04-30T02:29:50;13.75;;;8.38;;
52858;SDS011;38721;53.098;6.596;2023-04-30T02:32:16;12.27;;;7.10;;
52858;SDS011;38721;53.098;6.596;2023-04-30T02:34:42;8.00;;;5.65;;
52858;SDS011;38721;53.098;6.596;2023-04-30T02:37:08;8.55;;;5.97;;
52858;SDS011;38721;53.098;6.596;2023-04-30T02:39:34;6.90;;;5.13;;
52858;SDS011;38721;53.098;6.596;2023-04-30T02:42:00;5.93;;;4.95;;
52858;SDS011;38721;53.098;6.596;2023-04-30T02:44:26;8.38;;;6.32;;
52858;SDS011;38721;53.098;6.596;2023-04-30T02:46:52;11.85;;;7.65;;
52858;SDS011;38721;53.098;6.596;2023-04-30T02:49:18;11.80;;;7.68;;
52858;SDS011;38721;53.098;6.596;2023-04-30T02:51:43;17.42;;;8.00;;
52858;SDS011;38721;53.098;6.596;2023-04-30T02:54:09;12.75;;;9.10;;
52858;SDS011;38721;53.098;6.596;2023-04-30T02:56:35;15.30;;;8.52;;
52858;SDS011;38721;53.098;6.596;2023-04-30T02:59:00;12.02;;;8.40;;
52858;SDS011;38721;53.098;6.596;2023-04-30T03:01:26;12.13;;;7.97;;
52858;SDS011;38721;53.098;6.596;2023-04-30T03:03:52;14.73;;;8.95;;
52858;SDS011;38721;53.098;6.596;2023-04-30T03:06:17;11.27;;;7.43;;
52858;SDS011;38721;53.098;6.596;2023-04-30T03:08:43;10.27;;;6.22;;
52858;SDS011;38721;53.098;6.596;2023-04-30T03:11:09;162.30;;;13.30;;
52858;SDS011;38721;53.098;6.596;2023-04-30T03:13:34;76.20;;;7.43;;
52858;SDS011;38721;53.098;6.596;2023-04-30T03:16:01;7.32;;;5.38;;
52858;SDS011;38721;53.098;6.596;2023-04-30T03:18:30;7.18;;;5.95;;
52858;SDS011;38721;53.098;6.596;2023-04-30T03:20:56;7.10;;;5.70;;
52858;SDS011;38721;53.098;6.596;2023-04-30T03:23:22;7.95;;;6.07;;
52858;SDS011;38721;53.098;6.596;2023-04-30T03:25:51;10.15;;;6.20;;
52858;SDS011;38721;53.098;6.596;2023-04-30T03:28:16;9.40;;;6.63;;
52858;SDS011;38721;53.098;6.596;2023-04-30T03:30:42;9.55;;;6.75;;
52858;SDS011;38721;53.098;6.596;2023-04-30T03:33:08;11.68;;;7.25;;
52858;SDS011;38721;53.098;6.596;2023-04-30T03:35:33;13.70;;;8.10;;
52858;SDS011;38721;53.098;6.596;2023-04-30T03:37:59;13.20;;;8.15;;
52858;SDS011;38721;53.098;6.596;2023-04-30T03:40:29;13.65;;;8.50;;
52858;SDS011;38721;53.098;6.596;2023-04-30T03:42:54;16.17;;;8.93;;
52858;SDS011;38721;53.098;6.596;2023-04-30T03:45:20;12.70;;;8.32;;
52858;SDS011;38721;53.098;6.596;2023-04-30T03:47:46;11.93;;;8.43;;
52858;SDS011;38721;53.098;6.596;2023-04-30T03:50:13;14.40;;;8.43;;
52858;SDS011;38721;53.098;6.596;2023-04-30T03:52:38;12.07;;;8.88;;
52858;SDS011;38721;53.098;6.596;2023-04-30T03:55:04;14.45;;;7.75;;
52858;SDS011;38721;53.098;6.596;2023-04-30T03:57:31;11.70;;;8.40;;
52858;SDS011;38721;53.098;6.596;2023-04-30T03:59:57;14.43;;;8.63;;
52858;SDS011;38721;53.098;6.596;2023-04-30T04:02:23;14.32;;;9.05;;
52858;SDS011;38721;53.098;6.596;2023-04-30T04:04:49;13.95;;;8.70;;
52858;SDS011;38721;53.098;6.596;2023-04-30T04:07:15;14.25;;;7.80;;
52858;SDS011;38721;53.098;6.596;2023-04-30T04:09:41;10.88;;;8.27;;
52858;SDS011;38721;53.098;6.596;2023-04-30T04:12:07;14.15;;;9.23;;
52858;SDS011;38721;53.098;6.596;2023-04-30T04:14:33;12.80;;;7.88;;
52858;SDS011;38721;53.098;6.596;2023-04-30T04:16:59;41.17;;;8.23;;
52858;SDS011;38721;53.098;6.596;2023-04-30T04:19:26;8.95;;;6.28;;
52858;SDS011;38721;53.098;6.596;2023-04-30T04:21:52;10.63;;;7.20;;
52858;SDS011;38721;53.098;6.596;2023-04-30T04:24:18;12.23;;;7.68;;
52858;SDS011;38721;53.098;6.596;2023-04-30T04:26:44;8.82;;;6.72;;
52858;SDS011;38721;53.098;6.596;2023-04-30T04:29:09;10.80;;;7.50;;
52858;SDS011;38721;53.098;6.596;2023-04-30T04:31:36;9.75;;;7.45;;
52858;SDS011;38721;53.098;6.596;2023-04-30T04:34:03;22.95;;;7.18;;
52858;SDS011;38721;53.098;6.596;2023-04-30T04:36:29;13.05;;;8.38;;
52858;SDS011;38721;53.098;6.596;2023-04-30T04:38:56;13.80;;;8.88;;
52858;SDS011;38721;53.098;6.596;2023-04-30T04:41:25;15.88;;;8.68;;
52858;SDS011;38721;53.098;6.596;2023-04-30T04:43:52;13.82;;;9.02;;
52858;SDS011;38721;53.098;6.596;2023-04-30T04:46:17;13.50;;;8.90;;
52858;SDS011;38721;53.098;6.596;2023-04-30T04:48:44;13.25;;;8.43;;
52858;SDS011;38721;53.098;6.596;2023-04-30T04:51:10;15.75;;;10.02;;
52858;SDS011;38721;53.098;6.596;2023-04-30T04:53:36;15.27;;;9.57;;
52858;SDS011;38721;53.098;6.596;2023-04-30T04:56:02;12.43;;;8.18;;
52858;SDS011;38721;53.098;6.596;2023-04-30T04:58:28;8.77;;;6.95;;
52858;SDS011;38721;53.098;6.596;2023-04-30T05:00:54;16.83;;;8.85;;
52858;SDS011;38721;53.098;6.596;2023-04-30T05:03:20;13.23;;;8.68;;
52858;SDS011;38721;53.098;6.596;2023-04-30T05:05:46;13.23;;;8.43;;
52858;SDS011;38721;53.098;6.596;2023-04-30T05:08:11;10.43;;;7.25;;
52858;SDS011;38721;53.098;6.596;2023-04-30T05:10:37;13.38;;;7.97;;
52858;SDS011;38721;53.098;6.596;2023-04-30T05:13:03;14.18;;;8.52;;
52858;SDS011;38721;53.098;6.596;2023-04-30T05:15:28;16.17;;;8.73;;
52858;SDS011;38721;53.098;6.596;2023-04-30T05:17:55;12.90;;;8.68;;
52858;SDS011;38721;53.098;6.596;2023-04-30T05:20:20;15.20;;;8.35;;
52858;SDS011;38721;53.098;6.596;2023-04-30T05:22:46;14.00;;;8.82;;
52858;SDS011;38721;53.098;6.596;2023-04-30T05:25:12;15.77;;;9.32;;
52858;SDS011;38721;53.098;6.596;2023-04-30T05:27:40;14.02;;;8.85;;
52858;SDS011;38721;53.098;6.596;2023-04-30T05:30:06;16.63;;;9.55;;
52858;SDS011;38721;53.098;6.596;2023-04-30T05:32:33;17.90;;;9.60;;
52858;SDS011;38721;53.098;6.596;2023-04-30T05:34:59;14.10;;;9.38;;
52858;SDS011;38721;53.098;6.596;2023-04-30T05:37:25;18.98;;;9.65;;
52858;SDS011;38721;53.098;6.596;2023-04-30T05:39:51;16.50;;;9.80;;
52858;SDS011;38721;53.098;6.596;2023-04-30T05:42:19;13.60;;;9.13;;
52858;SDS011;38721;53.098;6.596;2023-04-30T05:44:45;17.15;;;8.68;;
52858;SDS011;38721;53.098;6.596;2023-04-30T05:47:12;15.10;;;8.95;;
52858;SDS011;38721;53.098;6.596;2023-04-30T05:49:38;16.45;;;9.00;;
52858;SDS011;38721;53.098;6.596;2023-04-30T05:52:03;18.05;;;7.65;;
52858;SDS011;38721;53.098;6.596;2023-04-30T05:54:29;11.82;;;6.93;;
52858;SDS011;38721;53.098;6.596;2023-04-30T05:56:55;10.80;;;6.60;;
52858;SDS011;38721;53.098;6.596;2023-04-30T05:59:21;20.58;;;7.50;;
52858;SDS011;38721;53.098;6.596;2023-04-30T06:01:47;17.27;;;7.13;;
52858;SDS011;38721;53.098;6.596;2023-04-30T06:04:13;15.52;;;7.25;;
52858;SDS011;38721;53.098;6.596;2023-04-30T06:06:38;14.23;;;6.13;;
52858;SDS011;38721;53.098;6.596;2023-04-30T06:09:04;13.25;;;6.50;;
52858;SDS011;38721;53.098;6.596;2023-04-30T06:11:30;14.57;;;6.25;;
52858;SDS011;38721;53.098;6.596;2023-04-30T06:13:56;12.30;;;6.22;;
52858;SDS011;38721;53.098;6.596;2023-04-30T06:16:22;15.38;;;6.25;;
52858;SDS011;38721;53.098;6.596;2023-04-30T06:18:49;18.30;;;6.28;;
52858;SDS011;38721;53.098;6.596;2023-04-30T06:21:14;11.63;;;5.60;;
52858;SDS011;38721;53.098;6.596;2023-04-30T06:23:40;12.88;;;5.13;;
52858;SDS011;38721;53.098;6.596;2023-04-30T06:26:06;14.65;;;5.00;;
52858;SDS011;38721;53.098;6.596;2023-04-30T06:28:31;11.48;;;5.60;;
52858;SDS011;38721;53.098;6.596;2023-04-30T06:30:57;16.73;;;5.60;;
52858;SDS011;38721;53.098;6.596;2023-04-30T06:33:23;12.30;;;5.28;;
52858;SDS011;38721;53.098;6.596;2023-04-30T06:35:49;12.90;;;5.55;;
52858;SDS011;38721;53.098;6.596;2023-04-30T06:38:28;11.60;;;4.28;;
52858;SDS011;38721;53.098;6.596;2023-04-30T06:40:53;10.45;;;5.00;;
52858;SDS011;38721;53.098;6.596;2023-04-30T06:43:19;9.30;;;4.40;;
52858;SDS011;38721;53.098;6.596;2023-04-30T06:45:45;10.88;;;4.20;;
52858;SDS011;38721;53.098;6.596;2023-04-30T06:48:10;11.73;;;3.92;;
52858;SDS011;38721;53.098;6.596;2023-04-30T06:50:36;14.18;;;4.18;;
52858;SDS011;38721;53.098;6.596;2023-04-30T06:53:09;12.40;;;4.57;;
52858;SDS011;38721;53.098;6.596;2023-04-30T06:55:35;7.72;;;3.60;;
52858;SDS011;38721;53.098;6.596;2023-04-30T06:58:01;15.45;;;3.90;;
52858;SDS011;38721;53.098;6.596;2023-04-30T07:00:26;10.45;;;3.72;;
52858;SDS011;38721;53.098;6.596;2023-04-30T07:02:52;7.97;;;3.22;;
52858;SDS011;38721;53.098;6.596;2023-04-30T07:05:18;11.77;;;4.00;;
52858;SDS011;38721;53.098;6.596;2023-04-30T07:07:43;9.93;;;3.28;;
52858;SDS011;38721;53.098;6.596;2023-04-30T07:10:09;11.55;;;3.63;;
52858;SDS011;38721;53.098;6.596;2023-04-30T07:12:35;11.23;;;3.70;;
52858;SDS011;38721;53.098;6.596;2023-04-30T07:15:01;12.63;;;3.88;;
52858;SDS011;38721;53.098;6.596;2023-04-30T07:17:27;8.57;;;3.28;;
52858;SDS011;38721;53.098;6.596;2023-04-30T07:19:53;10.07;;;3.83;;
52858;SDS011;38721;53.098;6.596;2023-04-30T07:22:19;12.63;;;4.18;;
52858;SDS011;38721;53.098;6.596;2023-04-30T07:24:44;17.75;;;4.40;;
52858;SDS011;38721;53.098;6.596;2023-04-30T07:27:11;10.40;;;3.38;;
52858;SDS011;38721;53.098;6.596;2023-04-30T07:29:36;11.60;;;3.50;;
52858;SDS011;38721;53.098;6.596;2023-04-30T07:32:02;10.13;;;3.42;;
52858;SDS011;38721;53.098;6.596;2023-04-30T07:34:28;6.18;;;3.15;;
52858;SDS011;38721;53.098;6.596;2023-04-30T07:36:53;12.88;;;3.47;;
52858;SDS011;38721;53.098;6.596;2023-04-30T07:39:19;10.95;;;3.38;;
52858;SDS011;38721;53.098;6.596;2023-04-30T07:41:45;12.45;;;3.28;;
52858;SDS011;38721;53.098;6.596;2023-04-30T07:44:10;9.05;;;3.08;;
52858;SDS011;38721;53.098;6.596;2023-04-30T07:46:36;10.32;;;3.08;;
52858;SDS011;38721;53.098;6.596;2023-04-30T07:49:02;13.55;;;3.17;;
52858;SDS011;38721;53.098;6.596;2023-04-30T07:51:28;14.68;;;3.22;;
52858;SDS011;38721;53.098;6.596;2023-04-30T07:53:54;7.32;;;3.40;;
52858;SDS011;38721;53.098;6.596;2023-04-30T07:56:19;10.00;;;3.47;;
52858;SDS011;38721;53.098;6.596;2023-04-30T07:58:46;9.98;;;3.78;;
52858;SDS011;38721;53.098;6.596;2023-04-30T08:01:11;12.68;;;3.78;;
52858;SDS011;38721;53.098;6.596;2023-04-30T08:03:37;13.98;;;3.58;;
52858;SDS011;38721;53.098;6.596;2023-04-30T08:06:03;6.95;;;3.22;;
52858;SDS011;38721;53.098;6.596;2023-04-30T08:08:29;9.40;;;3.35;;
52858;SDS011;38721;53.098;6.596;2023-04-30T08:10:55;10.57;;;3.03;;
52858;SDS011;38721;53.098;6.596;2023-04-30T08:13:21;13.68;;;3.83;;
52858;SDS011;38721;53.098;6.596;2023-04-30T08:15:46;11.15;;;3.10;;
52858;SDS011;38721;53.098;6.596;2023-04-30T08:18:12;10.48;;;3.53;;
52858;SDS011;38721;53.098;6.596;2023-04-30T08:20:40;9.48;;;3.20;;
52858;SDS011;38721;53.098;6.596;2023-04-30T08:23:09;10.52;;;3.42;;
52858;SDS011;38721;53.098;6.596;2023-04-30T08:25:34;10.68;;;3.28;;
52858;SDS011;38721;53.098;6.596;2023-04-30T08:28:01;8.00;;;3.40;;
52858;SDS011;38721;53.098;6.596;2023-04-30T08:30:26;7.75;;;3.10;;
52858;SDS011;38721;53.098;6.596;2023-04-30T08:32:52;10.55;;;3.40;;
52858;SDS011;38721;53.098;6.596;2023-04-30T08:35:18;8.13;;;2.95;;
52858;SDS011;38721;53.098;6.596;2023-04-30T08:37:44;10.70;;;3.40;;
52858;SDS011;38721;53.098;6.596;2023-04-30T08:40:10;7.60;;;2.90;;
52858;SDS011;38721;53.098;6.596;2023-04-30T08:42:36;8.98;;;3.35;;
52858;SDS011;38721;53.098;6.596;2023-04-30T08:45:08;9.00;;;3.25;;
52858;SDS011;38721;53.098;6.596;2023-04-30T08:47:36;8.00;;;2.88;;
52858;SDS011;38721;53.098;6.596;2023-04-30T08:50:03;11.63;;;3.50;;
52858;SDS011;38721;53.098;6.596;2023-04-30T08:52:33;9.63;;;3.10;;
52858;SDS011;38721;53.098;6.596;2023-04-30T08:55:00;9.18;;;3.22;;
52858;SDS011;38721;53.098;6.596;2023-04-30T08:57:26;11.07;;;3.53;;
52858;SDS011;38721;53.098;6.596;2023-04-30T08:59:55;6.90;;;2.80;;
52858;SDS011;38721;53.098;6.596;2023-04-30T09:02:20;9.40;;;3.15;;
52858;SDS011;38721;53.098;6.596;2023-04-30T09:04:47;8.43;;;3.40;;
52858;SDS011;38721;53.098;6.596;2023-04-30T09:07:13;13.68;;;3.15;;
52858;SDS011;38721;53.098;6.596;2023-04-30T09:09:40;8.50;;;3.15;;
52858;SDS011;38721;53.098;6.596;2023-04-30T09:12:13;7.35;;;3.28;;
52858;SDS011;38721;53.098;6.596;2023-04-30T09:14:46;7.97;;;3.28;;
52858;SDS011;38721;53.098;6.596;2023-04-30T09:17:24;7.72;;;2.70;;
52858;SDS011;38721;53.098;6.596;2023-04-30T09:19:50;7.45;;;3.10;;
52858;SDS011;38721;53.098;6.596;2023-04-30T09:22:20;11.00;;;3.08;;
52858;SDS011;38721;53.098;6.596;2023-04-30T09:24:47;8.82;;;3.28;;
52858;SDS011;38721;53.098;6.596;2023-04-30T09:27:18;9.80;;;3.40;;
52858;SDS011;38721;53.098;6.596;2023-04-30T09:29:45;8.77;;;2.92;;
52858;SDS011;38721;53.098;6.596;2023-04-30T09:32:14;6.68;;;2.85;;
52858;SDS011;38721;53.098;6.596;2023-04-30T09:34:40;9.30;;;3.45;;
52858;SDS011;38721;53.098;6.596;2023-04-30T09:37:07;6.32;;;3.20;;
52858;SDS011;38721;53.098;6.596;2023-04-30T09:39:44;7.70;;;2.80;;
52858;SDS011;38721;53.098;6.596;2023-04-30T09:42:11;10.40;;;2.92;;
52858;SDS011;38721;53.098;6.596;2023-04-30T09:44:38;5.90;;;2.75;;
52858;SDS011;38721;53.098;6.596;2023-04-30T09:47:12;8.02;;;3.00;;
52858;SDS011;38721;53.098;6.596;2023-04-30T09:49:42;5.47;;;2.80;;
52858;SDS011;38721;53.098;6.596;2023-04-30T09:52:13;5.90;;;2.67;;
52858;SDS011;38721;53.098;6.596;2023-04-30T09:54:40;5.72;;;2.60;;
52858;SDS011;38721;53.098;6.596;2023-04-30T09:57:08;8.55;;;2.85;;
52858;SDS011;38721;53.098;6.596;2023-04-30T09:59:35;8.88;;;2.92;;
52858;SDS011;38721;53.098;6.596;2023-04-30T10:02:07;8.98;;;2.85;;
52858;SDS011;38721;53.098;6.596;2023-04-30T10:04:41;7.65;;;3.30;;
52858;SDS011;38721;53.098;6.596;2023-04-30T10:07:20;7.32;;;2.80;;
52858;SDS011;38721;53.098;6.596;2023-04-30T10:09:58;9.18;;;3.15;;
52858;SDS011;38721;53.098;6.596;2023-04-30T10:12:38;5.50;;;2.95;;
52858;SDS011;38721;53.098;6.596;2023-04-30T10:17:43;7.82;;;2.63;;
52858;SDS011;38721;53.098;6.596;2023-04-30T10:20:13;7.63;;;3.15;;
52858;SDS011;38721;53.098;6.596;2023-04-30T10:22:53;6.90;;;3.08;;
52858;SDS011;38721;53.098;6.596;2023-04-30T10:25:20;7.80;;;2.90;;
52858;SDS011;38721;53.098;6.596;2023-04-30T10:27:53;9.05;;;3.25;;
52858;SDS011;38721;53.098;6.596;2023-04-30T10:30:19;6.25;;;2.78;;
52858;SDS011;38721;53.098;6.596;2023-04-30T10:35:23;8.50;;;2.90;;
52858;SDS011;38721;53.098;6.596;2023-04-30T10:38:14;7.38;;;2.88;;
52858;SDS011;38721;53.098;6.596;2023-04-30T10:40:55;6.72;;;3.55;;
52858;SDS011;38721;53.098;6.596;2023-04-30T10:43:25;6.97;;;2.97;;
52858;SDS011;38721;53.098;6.596;2023-04-30T10:45:53;10.43;;;3.30;;
52858;SDS011;38721;53.098;6.596;2023-04-30T10:48:22;9.63;;;3.40;;
52858;SDS011;38721;53.098;6.596;2023-04-30T10:50:56;6.90;;;3.20;;
52858;SDS011;38721;53.098;6.596;2023-04-30T10:53:23;5.60;;;2.80;;
52858;SDS011;38721;53.098;6.596;2023-04-30T10:55:55;5.07;;;2.90;;
52858;SDS011;38721;53.098;6.596;2023-04-30T10:58:31;7.68;;;3.00;;
52858;SDS011;38721;53.098;6.596;2023-04-30T11:01:10;9.27;;;2.85;;
52858;SDS011;38721;53.098;6.596;2023-04-30T11:03:39;6.28;;;3.30;;
52858;SDS011;38721;53.098;6.596;2023-04-30T11:06:10;9.45;;;2.88;;
52858;SDS011;38721;53.098;6.596;2023-04-30T11:08:44;8.15;;;2.90;;
52858;SDS011;38721;53.098;6.596;2023-04-30T11:11:11;6.68;;;2.85;;
52858;SDS011;38721;53.098;6.596;2023-04-30T11:13:45;6.82;;;3.00;;
52858;SDS011;38721;53.098;6.596;2023-04-30T11:16:14;7.75;;;2.92;;
52858;SDS011;38721;53.098;6.596;2023-04-30T11:18:41;5.75;;;3.20;;
52858;SDS011;38721;53.098;6.596;2023-04-30T11:21:11;5.18;;;2.97;;
52858;SDS011;38721;53.098;6.596;2023-04-30T11:23:41;8.38;;;3.22;;
52858;SDS011;38721;53.098;6.596;2023-04-30T11:26:08;6.88;;;2.95;;
52858;SDS011;38721;53.098;6.596;2023-04-30T11:28:35;4.18;;;2.45;;
52858;SDS011;38721;53.098;6.596;2023-04-30T11:31:02;4.75;;;2.65;;
52858;SDS011;38721;53.098;6.596;2023-04-30T11:33:29;5.30;;;3.10;;
52858;SDS011;38721;53.098;6.596;2023-04-30T11:35:56;6.43;;;3.28;;
52858;SDS011;38721;53.098;6.596;2023-04-30T11:38:35;6.07;;;3.10;;
52858;SDS011;38721;53.098;6.596;2023-04-30T11:41:02;6.60;;;3.05;;
52858;SDS011;38721;53.098;6.596;2023-04-30T11:43:29;3.75;;;3.00;;
52858;SDS011;38721;53.098;6.596;2023-04-30T11:46:00;5.63;;;2.95;;
52858;SDS011;38721;53.098;6.596;2023-04-30T11:48:30;5.13;;;2.70;;
52858;SDS011;38721;53.098;6.596;2023-04-30T11:50:56;5.68;;;2.72;;
52858;SDS011;38721;53.098;6.596;2023-04-30T11:53:25;5.38;;;2.70;;
52858;SDS011;38721;53.098;6.596;2023-04-30T11:55:53;3.78;;;2.67;;
52858;SDS011;38721;53.098;6.596;2023-04-30T11:58:22;6.32;;;3.00;;
52858;SDS011;38721;53.098;6.596;2023-04-30T12:00:47;5.47;;;2.92;;
52858;SDS011;38721;53.098;6.596;2023-04-30T12:03:16;4.43;;;2.88;;
52858;SDS011;38721;53.098;6.596;2023-04-30T12:05:41;4.72;;;2.85;;
52858;SDS011;38721;53.098;6.596;2023-04-30T12:08:07;5.30;;;2.90;;
52858;SDS011;38721;53.098;6.596;2023-04-30T12:10:34;5.75;;;3.00;;
52858;SDS011;38721;53.098;6.596;2023-04-30T12:13:02;5.78;;;2.72;;
52858;SDS011;38721;53.098;6.596;2023-04-30T12:15:28;3.80;;;2.47;;
52858;SDS011;38721;53.098;6.596;2023-04-30T12:17:58;5.20;;;2.85;;
52858;SDS011;38721;53.098;6.596;2023-04-30T12:20:25;6.60;;;2.90;;
52858;SDS011;38721;53.098;6.596;2023-04-30T12:22:52;5.45;;;2.92;;
52858;SDS011;38721;53.098;6.596;2023-04-30T12:25:20;6.07;;;3.00;;
52858;SDS011;38721;53.098;6.596;2023-04-30T12:27:47;6.85;;;3.13;;
52858;SDS011;38721;53.098;6.596;2023-04-30T12:30:17;4.82;;;2.83;;
52858;SDS011;38721;53.098;6.596;2023-04-30T12:32:47;3.70;;;2.65;;
52858;SDS011;38721;53.098;6.596;2023-04-30T12:35:14;4.75;;;2.92;;
52858;SDS011;38721;53.098;6.596;2023-04-30T12:37:42;4.63;;;2.83;;
52858;SDS011;38721;53.098;6.596;2023-04-30T12:40:25;6.82;;;3.13;;
52858;SDS011;38721;53.098;6.596;2023-04-30T12:42:58;6.00;;;3.03;;
52858;SDS011;38721;53.098;6.596;2023-04-30T12:48:21;4.22;;;3.05;;
52858;SDS011;38721;53.098;6.596;2023-04-30T12:50:52;5.57;;;2.78;;
52858;SDS011;38721;53.098;6.596;2023-04-30T12:53:20;3.60;;;2.72;;
52858;SDS011;38721;53.098;6.596;2023-04-30T12:58:33;5.00;;;3.13;;
52858;SDS011;38721;53.098;6.596;2023-04-30T13:00:59;6.53;;;3.30;;
52858;SDS011;38721;53.098;6.596;2023-04-30T13:03:25;5.55;;;3.55;;
52858;SDS011;38721;53.098;6.596;2023-04-30T13:05:50;5.72;;;3.42;;
52858;SDS011;38721;53.098;6.596;2023-04-30T13:08:17;5.22;;;3.40;;
52858;SDS011;38721;53.098;6.596;2023-04-30T13:10:44;6.93;;;3.38;;
52858;SDS011;38721;53.098;6.596;2023-04-30T13:13:12;5.13;;;3.30;;
52858;SDS011;38721;53.098;6.596;2023-04-30T13:15:38;5.22;;;3.00;;
52858;SDS011;38721;53.098;6.596;2023-04-30T13:18:05;6.85;;;2.95;;
52858;SDS011;38721;53.098;6.596;2023-04-30T13:20:34;4.25;;;2.97;;
52858;SDS011;38721;53.098;6.596;2023-04-30T13:23:00;5.47;;;3.33;;
52858;SDS011;38721;53.098;6.596;2023-04-30T13:25:26;4.60;;;3.20;;
52858;SDS011;38721;53.098;6.596;2023-04-30T13:27:51;7.10;;;3.00;;
52858;SDS011;38721;53.098;6.596;2023-04-30T13:30:17;5.93;;;2.80;;
52858;SDS011;38721;53.098;6.596;2023-04-30T13:32:43;6.47;;;2.70;;
52858;SDS011;38721;53.098;6.596;2023-04-30T13:35:10;6.05;;;3.00;;
52858;SDS011;38721;53.098;6.596;2023-04-30T13:37:36;5.53;;;3.20;;
52858;SDS011;38721;53.098;6.596;2023-04-30T13:40:03;5.38;;;3.00;;
52858;SDS011;38721;53.098;6.596;2023-04-30T13:42:32;5.57;;;2.90;;
52858;SDS011;38721;53.098;6.596;2023-04-30T13:44:58;5.05;;;2.90;;
52858;SDS011;38721;53.098;6.596;2023-04-30T13:47:24;5.65;;;2.75;;
52858;SDS011;38721;53.098;6.596;2023-04-30T13:49:50;5.55;;;2.80;;
52858;SDS011;38721;53.098;6.596;2023-04-30T13:52:15;5.28;;;2.80;;
52858;SDS011;38721;53.098;6.596;2023-04-30T13:54:41;3.63;;;2.50;;
52858;SDS011;38721;53.098;6.596;2023-04-30T13:57:07;4.55;;;2.58;;
52858;SDS011;38721;53.098;6.596;2023-04-30T13:59:32;4.15;;;2.25;;
52858;SDS011;38721;53.098;6.596;2023-04-30T14:01:59;3.53;;;2.05;;
52858;SDS011;38721;53.098;6.596;2023-04-30T14:04:24;4.60;;;2.20;;
52858;SDS011;38721;53.098;6.596;2023-04-30T14:06:51;5.35;;;2.00;;
52858;SDS011;38721;53.098;6.596;2023-04-30T14:09:20;5.25;;;2.25;;
52858;SDS011;38721;53.098;6.596;2023-04-30T14:11:46;3.60;;;2.08;;
52858;SDS011;38721;53.098;6.596;2023-04-30T14:14:12;3.60;;;2.10;;
52858;SDS011;38721;53.098;6.596;2023-04-30T14:16:37;5.35;;;2.75;;
52858;SDS011;38721;53.098;6.596;2023-04-30T14:19:03;6.82;;;2.63;;
52858;SDS011;38721;53.098;6.596;2023-04-30T14:21:30;5.43;;;2.50;;
52858;SDS011;38721;53.098;6.596;2023-04-30T14:23:57;11.45;;;3.17;;
52858;SDS011;38721;53.098;6.596;2023-04-30T14:26:23;2.85;;;2.20;;
52858;SDS011;38721;53.098;6.596;2023-04-30T14:28:48;2.85;;;2.00;;
52858;SDS011;38721;53.098;6.596;2023-04-30T14:31:14;4.90;;;2.08;;
52858;SDS011;38721;53.098;6.596;2023-04-30T14:33:39;4.10;;;2.15;;
52858;SDS011;38721;53.098;6.596;2023-04-30T14:36:05;2.83;;;1.90;;
52858;SDS011;38721;53.098;6.596;2023-04-30T14:38:31;4.15;;;2.10;;
52858;SDS011;38721;53.098;6.596;2023-04-30T14:40:57;4.25;;;2.40;;
52858;SDS011;38721;53.098;6.596;2023-04-30T14:43:23;3.90;;;2.58;;
52858;SDS011;38721;53.098;6.596;2023-04-30T14:45:49;4.00;;;2.30;;
52858;SDS011;38721;53.098;6.596;2023-04-30T14:48:15;5.80;;;2.60;;
52858;SDS011;38721;53.098;6.596;2023-04-30T14:50:42;4.28;;;2.42;;
52858;SDS011;38721;53.098;6.596;2023-04-30T14:53:08;3.92;;;2.08;;
52858;SDS011;38721;53.098;6.596;2023-04-30T14:55:35;4.68;;;2.47;;
52858;SDS011;38721;53.098;6.596;2023-04-30T14:58:01;4.13;;;2.00;;
52858;SDS011;38721;53.098;6.596;2023-04-30T15:00:28;3.55;;;1.77;;
52858;SDS011;38721;53.098;6.596;2023-04-30T15:02:54;3.28;;;2.08;;
52858;SDS011;38721;53.098;6.596;2023-04-30T15:05:20;4.25;;;2.38;;
52858;SDS011;38721;53.098;6.596;2023-04-30T15:07:45;3.17;;;1.83;;
52858;SDS011;38721;53.098;6.596;2023-04-30T15:10:11;4.50;;;2.28;;